• Join FlightAware (Why Join?)
  • Login
  • US Flag 
05:45AM EDT


 

Airport Tracker/Info


-or-


 

Live Flight TrackerFlight Track Log ✈ AWE2740 ✈ 25-Apr-2013 ✈ KCLT - KMHT

Flight Track Log - Related Links

Times and Time Zones

All times are in EDT time to prevent confusion due to time zone crossing. See the AWE2740 flight status page for this flight to view local times or setup timezone preferences in your user account.

Time Position Orientation Groundspeed Altitude Reporting Facility
EDT Latitude Longitude Course Direction KTS MPH feet Rate Location/Type
08:16PM 35.1928 -80.9356 72° East 151 174 1,600  Level Atlanta Center
08:16PM 35.1719 -80.9339 176° South 158 182 2,600 1,560 Climbing Atlanta Center
08:17PM 35.1289 -80.8847 137° Southeast 246 283 4,000 1,440 Climbing Atlanta Center
08:17PM 35.1367 -80.8589 70° East 261 300 4,600 2,400 Climbing Atlanta Center
08:18PM 35.1581 -80.8022 65° Northeast 291 335 6,500 2,700 Climbing Atlanta Center
08:18PM 35.1719 -80.7739 59° Northeast 294 338 7,300 2,280 Climbing Atlanta Center
08:19PM 35.2529 -80.5289 30° Northeast  Level FlightAware Approximate
08:19PM 35.2092 -80.6858 63° Northeast 310 357 9,600  Level Atlanta Center
08:20PM 35.3392 -80.4446 72° East  Level FlightAware Approximate
08:20PM 35.2503 -80.5875 63° Northeast 313 360 11,200  Level Atlanta Center
08:21PM 35.3770 -80.3012 72° East  Level FlightAware Approximate
08:21PM 35.2953 -80.4789 63° Northeast 343 395 13,500  Level Atlanta Center
08:24PM 35.3917 -80.2419 63° Northeast 379 436 17,000 1,560 Climbing Washington Center
08:25PM 35.4361 -80.1169 66° East 384 442 18,500 1,620 Climbing Washington Center
08:26PM 35.4772 -79.9689 71° East 396 456 20,300 1,500 Climbing Washington Center
08:27PM 35.5114 -79.8331 73° East 406 467 21,600 1,200 Climbing Washington Center
08:28PM 35.5497 -79.6894 72° East 417 480 22,800 1,260 Climbing Washington Center
08:29PM 35.5903 -79.5358 72° East 448 516 24,200 1,200 Climbing Washington Center
08:30PM 35.6325 -79.3897 70° East 462 532 25,200 1,140 Climbing Washington Center
08:31PM 35.6914 -79.2467 63° Northeast 457 526 26,500 1,140 Climbing Washington Center
08:32PM 35.7500 -79.0983 64° Northeast 468 539 27,500 960 Climbing Washington Center
08:33PM 35.8086 -78.9472 64° Northeast 481 554 28,500 1,440 Climbing Washington Center
08:34PM 35.8711 -78.7986 63° Northeast 481 554 30,500 1,500 Climbing Washington Center
08:35PM 35.9353 -78.6628 60° Northeast 468 539 31,600 780 Climbing Washington Center
08:36PM 35.9881 -78.5519 59° Northeast 463 533 32,100 660 Climbing Washington Center
08:37PM 36.0628 -78.4003 59° Northeast 463 533 33,000 840 Climbing Washington Center
08:38PM 36.1306 -78.2589 59° Northeast 463 533 33,800 780 Climbing Washington Center
08:39PM 36.1961 -78.1169 60° Northeast 463 533 34,600 660 Climbing Washington Center
08:40PM 36.2639 -77.9775 59° Northeast 463 533 35,200 420 Climbing Washington Center
08:41PM 36.3292 -77.8375 60° Northeast 463 533 35,500 300 Climbing Washington Center
08:42PM 36.3983 -77.6925 59° Northeast 473 544 35,800 300 Climbing Washington Center
08:43PM 36.4636 -77.5444 61° Northeast 480 552 36,100 300 Climbing Washington Center
08:44PM 36.5325 -77.4014 59° Northeast 480 552 36,500 360 Climbing Washington Center
08:45PM 36.6014 -77.2531 60° Northeast 480 552 36,900 240 Climbing Washington Center
08:46PM 36.6703 -77.1069 60° Northeast 480 552 37,000  Climbing Washington Center
08:47PM 36.7572 -76.9736 51° Northeast 480 552 37,000  Level Washington Center
08:48PM 36.8628 -76.8744 37° Northeast 475 547 37,000  Level Washington Center
08:49PM 36.9764 -76.7747 35° Northeast 481 554 37,000  Level Washington Center
08:50PM 37.1025 -76.6622 35° Northeast 493 567 37,000  Level Washington Center
08:51PM 37.2142 -76.5594 36° Northeast 498 573 37,000  Level Washington Center
08:52PM 37.3275 -76.4564 36° Northeast 498 573 37,000  Level Washington Center
08:53PM 37.4408 -76.3531 36° Northeast 498 573 37,000  Level Washington Center
08:54PM 37.5542 -76.2494 36° Northeast 498 573 37,000  Level Washington Center
08:55PM 37.6672 -76.1481 35° Northeast 498 573 37,000  Level Washington Center
08:56PM 37.7592 -76.0672 35° Northeast 498 573 37,000  Level Washington Center
08:57PM 37.8892 -75.9364 38° Northeast 498 573 37,000  Level Washington Center
08:58PM 38.0019 -75.8317 36° Northeast 504 580 37,000  Level Washington Center
08:59PM 38.1042 -75.7369 36° Northeast 504 580 37,000  Level Washington Center
09:00PM 38.2128 -75.6339 37° Northeast 499 574 37,000  Level Washington Center
09:01PM 38.3400 -75.5256 34° Northeast 494 568 37,000  Level Washington Center
09:02PM 38.4650 -75.4644 21° North 473 544 37,000  Level Washington Center
09:03PM 38.5878 -75.4111 19° North 473 544 37,000  Level Washington Center
09:04PM 38.7128 -75.3575 19° North 473 544 37,000  Level Washington Center
09:05PM 38.8378 -75.2958 21° North 468 539 37,000  Level Washington Center
09:06PM 38.9542 -75.1967 34° Northeast 474 545 37,000  Level Washington Center
09:07PM 39.0728 -75.1078 30° Northeast 485 558 37,000  Level Washington Center
09:08PM 39.1850 -75.0106 34° Northeast 485 558 37,000  Level Washington Center
09:09PM 39.3011 -74.9158 32° Northeast 491 565 37,000  Level Washington Center
09:11PM 39.5389 -74.7144 33° Northeast 485 558 37,000  Level New York Center
09:12PM 39.6656 -74.6083 33° Northeast 485 558 37,000  Level New York Center
09:13PM 39.7706 -74.5169 34° Northeast 492 566 37,000  Level New York Center
09:14PM 39.9011 -74.4075 33° Northeast 504 580 37,000  Level New York Center
09:15PM 40.0192 -74.3025 34° Northeast 510 587 37,000  Level New York Center
09:16PM 40.1386 -74.2083 31° Northeast 510 587 37,000  Level New York Center
09:17PM 40.2689 -74.1658 14° North 490 564 37,000  Level New York Center
09:18PM 40.4050 -74.1481 North 485 558 37,000  Level New York Center
09:19PM 40.5411 -74.1272 North 480 552 37,000  Level New York Center
09:21PM 40.8336 -74.0914 North 499 574 37,000  Level Boston Center
09:22PM 40.9736 -74.0703 North 499 574 37,000  Level Boston Center
09:23PM 41.1050 -74.0489 North 499 574 37,000  Level Boston Center
09:24PM 41.2408 -74.0328 North 494 568 37,000  Level Boston Center
09:25PM 41.3767 -74.0114 North 489 563 37,000 -300 Level Boston Center
09:26PM 41.5144 -73.9897 North 484 557 36,400 -660 Descending Boston Center
09:27PM 41.6544 -73.9683 North 490 564 35,700 -720 Descending Boston Center
09:28PM 41.8047 -73.9497 North 496 571 35,000 -900 Descending Boston Center
09:29PM 41.9467 -73.9278 North 503 579 34,000 -1,380 Descending Boston Center
09:30PM 42.0886 -73.9061 North 503 579 32,300 -1,860 Descending Boston Center
09:31PM 42.2306 -73.8869 North 503 579 30,300 -2,040 Descending Boston Center
09:32PM 42.3444 -73.7772 35° Northeast 474 545 28,300 -2,100 Descending Boston Center
09:33PM 42.4008 -73.5758 69° East 456 525 25,800 -2,220 Descending Boston Center
09:34PM 42.4483 -73.4192 68° East 443 510 23,500 -2,400 Descending Boston Center
09:35PM 42.4933 -73.2594 69° East 443 510 21,000 -2,220 Descending Boston Center
09:36PM 42.5294 -73.1444 67° East 436 502 19,100 -1,020 Descending Boston Center
09:37PM 42.5761 -72.9869 68° East 412 474 19,000 -60 Descending Boston Center
09:38PM 42.6164 -72.8547 67° East 418 481 19,000 -660 Level Boston Center
09:39PM 42.6628 -72.6914 69° East 413 475 17,700 -1,500 Descending Boston Center
09:40PM 42.7089 -72.5503 66° East 413 475 16,000 -1,800 Descending Boston Center
09:41PM 42.7547 -72.4147 65° Northeast 408 470 14,200 -1,740 Descending Boston Center
09:42PM 42.7964 -72.2817 67° East 392 451 12,600 -1,740 Descending Boston Center
09:43PM 42.8044 -72.1431 85° East 353 406 10,800 -1,500 Descending Boston Center
09:44PM 42.8061 -72.0383 89° East 313 360 9,700 -1,500 Descending Boston Center
09:45PM 42.7994 -71.9222 94° East 290 334 7,900 -1,800 Descending Boston Center
09:46PM 42.7906 -71.8289 97° East 283 326 6,200 -1,800 Descending Boston Center
09:47PM 42.7817 -71.7186 96° East 272 313 4,400 -1,140 Descending Boston Center
09:48PM 42.7747 -71.6283 96° East 272 313 4,000 -240 Descending Boston Center
09:49PM 42.7633 -71.5181 98° East 267 307 4,000 -300 Level Boston Center
09:50PM 42.7692 -71.4389 84° East 245 282 3,400 -1,020 Descending Boston Center
09:51PM 42.8081 -71.3817 47° Northeast 192 221 2,000 -1,440 Descending Boston Center